Time;durP1;ratioP1;P1;durP2;ratioP2;P2;SDS_P1;SDS_P2;PMS_P1;PMS_P2;Temp;Humidity;BMP_temperature;BMP_pressure;BME280_temperature;BME280_humidity;BME280_pressure;Samples;Min_cycle;Max_cycle;Signal;HPM_P1;HPM_P2
2022/12/10 00:02:11;;;;;;;133.00;40.93;;;-0.90;99.90;;;;;;5062151;28;20220;-67
2022/12/10 00:04:38;;;;;;;123.43;38.30;;;-0.90;99.90;;;;;;5056131;28;20213;-67
2022/12/10 00:07:04;;;;;;;120.53;39.50;;;-1.10;99.90;;;;;;5058666;28;20205;-67
2022/12/10 00:09:31;;;;;;;130.83;39.77;;;-1.10;99.90;;;;;;5062517;28;20226;-68
2022/12/10 00:11:58;;;;;;;123.77;41.50;;;-1.10;99.90;;;;;;5063026;28;20214;-67
2022/12/10 00:14:24;;;;;;;128.57;40.57;;;-1.10;99.90;;;;;;5054341;28;20354;-67
2022/12/10 00:16:51;;;;;;;126.33;38.53;;;-1.10;99.90;;;;;;5057518;28;20202;-67
2022/12/10 00:19:18;;;;;;;129.17;39.00;;;-1.10;99.90;;;;;;5062642;28;20243;-68
2022/12/10 00:21:45;;;;;;;128.33;40.27;;;-1.10;99.90;;;;;;5067149;28;20581;-67
2022/12/10 00:24:12;;;;;;;123.53;40.47;;;-1.10;99.90;;;;;;5050514;28;20322;-67
2022/12/10 00:26:39;;;;;;;113.87;36.77;;;-1.10;99.90;;;;;;5062602;28;20588;-68
2022/12/10 00:29:09;;;;;;;114.00;35.57;;;-1.10;99.90;;;;;;5062065;28;20663;-67
2022/12/10 00:31:37;;;;;;;115.40;38.47;;;-1.10;99.90;;;;;;5062029;28;20285;-67
2022/12/10 00:34:07;;;;;;;126.53;39.03;;;-1.10;99.90;;;;;;5066641;28;20257;-68
2022/12/10 00:36:42;;;;;;;119.57;36.40;;;-1.10;99.90;;;;;;5059194;28;20233;-67
2022/12/10 00:39:11;;;;;;;116.40;38.60;;;-1.10;99.90;;;;;;5062729;28;20272;-67
2022/12/10 00:41:38;;;;;;;117.67;36.90;;;-1.00;99.90;;;;;;5059540;28;20224;-67
2022/12/10 00:44:04;;;;;;;115.40;37.23;;;-1.00;99.90;;;;;;5067215;28;20203;-68
2022/12/10 00:46:31;;;;;;;116.23;37.47;;;-1.00;99.90;;;;;;5064056;28;20287;-67
2022/12/10 00:48:59;;;;;;;112.17;38.90;;;-1.10;99.90;;;;;;5042512;28;20207;-67
2022/12/10 00:51:27;;;;;;;126.80;39.80;;;-1.10;99.90;;;;;;5065554;28;20290;-67
2022/12/10 00:53:56;;;;;;;119.37;38.17;;;-1.10;99.90;;;;;;5064408;28;20229;-67
2022/12/10 00:56:25;;;;;;;117.97;37.63;;;-1.10;99.90;;;;;;5063647;28;20199;-67
2022/12/10 00:58:52;;;;;;;126.83;37.40;;;-1.10;99.90;;;;;;5061718;28;20225;-67
2022/12/10 01:01:20;;;;;;;115.80;37.00;;;-1.00;99.90;;;;;;5059875;28;20235;-67
2022/12/10 01:03:49;;;;;;;119.07;37.17;;;-1.10;99.90;;;;;;5059295;28;20250;-67
2022/12/10 01:06:18;;;;;;;115.30;35.93;;;-1.10;99.90;;;;;;5065420;28;20229;-67
2022/12/10 01:08:46;;;;;;;109.13;37.00;;;-1.10;99.90;;;;;;5058884;28;20225;-67
2022/12/10 01:11:15;;;;;;;110.20;37.27;;;-1.10;99.90;;;;;;5066739;28;20221;-67
2022/12/10 01:13:42;;;;;;;109.03;37.27;;;-1.10;99.90;;;;;;5062594;28;20734;-67
2022/12/10 01:16:11;;;;;;;110.27;36.40;;;-1.10;99.90;;;;;;5064157;28;20671;-67
2022/12/10 01:18:38;;;;;;;113.40;37.83;;;-1.20;99.90;;;;;;5058060;28;20239;-67
2022/12/10 01:21:09;;;;;;;117.37;38.37;;;-1.10;99.90;;;;;;5064220;28;20212;-67
2022/12/10 01:23:38;;;;;;;109.43;39.17;;;-1.20;99.90;;;;;;5060311;28;20293;-68
2022/12/10 01:26:08;;;;;;;111.83;39.13;;;-1.20;99.90;;;;;;5064725;28;20562;-67
2022/12/10 01:28:37;;;;;;;123.47;38.43;;;-1.20;99.90;;;;;;5061002;28;20225;-67
2022/12/10 01:31:15;;;;;;;115.10;38.77;;;-1.20;99.90;;;;;;5064917;28;20203;-67
2022/12/10 01:33:43;;;;;;;116.40;37.40;;;-1.20;99.90;;;;;;5064383;28;20211;-67
2022/12/10 01:36:28;;;;;;;128.67;39.17;;;-1.20;99.90;;;;;;5062866;28;20294;-67
2022/12/10 01:38:55;;;;;;;109.90;37.10;;;-1.10;99.90;;;;;;5044084;28;20239;-67
2022/12/10 01:41:23;;;;;;;119.53;38.20;;;-1.10;99.90;;;;;;5068999;28;20198;-67
2022/12/10 01:43:54;;;;;;;114.30;37.17;;;-1.10;99.90;;;;;;5067579;28;20245;-67
2022/12/10 01:46:23;;;;;;;121.73;38.27;;;-1.10;99.90;;;;;;5064190;28;20616;-67
2022/12/10 01:48:51;;;;;;;118.73;38.70;;;-1.10;99.90;;;;;;5058830;28;20246;-67
2022/12/10 01:51:17;;;;;;;119.10;36.57;;;-1.20;99.90;;;;;;5067503;28;20227;-67
2022/12/10 01:53:45;;;;;;;124.03;40.50;;;-1.10;99.90;;;;;;5060796;28;20290;-67
2022/12/10 01:56:15;;;;;;;125.07;37.87;;;-1.10;99.90;;;;;;5046170;28;20607;-67
2022/12/10 01:58:43;;;;;;;114.27;38.10;;;-1.10;99.90;;;;;;5052261;28;20315;-67
2022/12/10 02:01:14;;;;;;;126.30;37.23;;;-1.10;99.90;;;;;;5062618;28;20632;-67
2022/12/10 02:03:48;;;;;;;113.17;37.53;;;-1.10;99.90;;;;;;5059539;28;20241;-67
2022/12/10 02:06:30;;;;;;;102.93;36.03;;;-1.10;99.90;;;;;;5063334;28;20292;-67
2022/12/10 02:09:22;;;;;;;116.10;37.17;;;-1.00;99.90;;;;;;5059849;28;20203;-67
2022/12/10 02:12:09;;;;;;;111.10;38.40;;;-1.00;99.90;;;;;;5063537;28;20231;-67
2022/12/10 02:15:10;;;;;;;112.47;35.47;;;-0.90;99.90;;;;;;5063911;28;20252;-68
2022/12/10 02:17:41;;;;;;;115.60;38.70;;;-0.80;99.90;;;;;;5061147;28;20256;-67
2022/12/10 02:20:33;;;;;;;124.60;40.33;;;-0.80;99.90;;;;;;5051773;28;20285;-67
2022/12/10 02:23:05;;;;;;;124.23;39.33;;;-0.70;99.90;;;;;;5066332;28;20298;-67
2022/12/10 02:26:18;;;;;;;112.40;38.03;;;-0.70;99.90;;;;;;5066085;28;20298;-67
2022/12/10 02:29:03;;;;;;;115.73;37.80;;;-0.70;99.90;;;;;;5036211;28;20549;-67
2022/12/10 02:31:31;;;;;;;118.80;38.77;;;-0.70;99.90;;;;;;5047198;28;20203;-67
2022/12/10 02:34:01;;;;;;;113.50;37.67;;;-0.70;99.90;;;;;;5045882;28;20214;-67
2022/12/10 02:36:32;;;;;;;110.30;36.70;;;-0.70;99.90;;;;;;5058763;28;20254;-66
2022/12/10 02:39:02;;;;;;;107.23;37.73;;;-0.70;99.90;;;;;;5060088;28;20274;-66
2022/12/10 02:41:38;;;;;;;101.63;35.57;;;-0.70;99.90;;;;;;5059548;28;20292;-66
2022/12/10 02:44:10;;;;;;;99.67;34.87;;;-0.70;99.90;;;;;;5045764;28;20209;-69
2022/12/10 02:46:39;;;;;;;107.63;36.60;;;-0.70;99.90;;;;;;5060738;28;20293;-66
2022/12/10 02:49:08;;;;;;;102.87;36.97;;;-0.70;99.90;;;;;;5043369;28;20235;-66
2022/12/10 02:51:34;;;;;;;99.17;36.50;;;-0.70;99.90;;;;;;5065808;28;20195;-66
2022/12/10 02:54:07;;;;;;;121.07;39.30;;;-0.80;99.90;;;;;;5065060;28;20206;-67
2022/12/10 02:56:54;;;;;;;105.53;36.73;;;-0.80;99.90;;;;;;5065142;28;20211;-66
2022/12/10 02:59:43;;;;;;;110.43;38.77;;;-0.80;99.90;;;;;;5063845;28;20280;-66
2022/12/10 03:02:15;;;;;;;107.23;38.00;;;-0.90;99.90;;;;;;5056980;28;20211;-66
2022/12/10 03:05:00;;;;;;;103.73;39.00;;;-1.00;99.90;;;;;;5063682;28;20237;-67
2022/12/10 03:07:48;;;;;;;109.70;40.03;;;-1.00;99.90;;;;;;5056421;28;20299;-66
2022/12/10 03:10:42;;;;;;;104.93;37.47;;;-1.00;99.90;;;;;;5065378;28;20230;-66
2022/12/10 03:13:14;;;;;;;111.87;37.80;;;-1.10;99.90;;;;;;5043275;28;20305;-67
2022/12/10 03:15:42;;;;;;;106.17;37.40;;;-1.10;99.90;;;;;;5059945;28;20211;-66
2022/12/10 03:18:12;;;;;;;123.73;39.60;;;-1.20;99.90;;;;;;5062992;28;20582;-66
2022/12/10 03:20:42;;;;;;;116.00;39.50;;;-1.20;99.90;;;;;;5062687;28;20220;-66
2022/12/10 03:23:16;;;;;;;106.97;37.80;;;-1.20;99.90;;;;;;5063228;28;20289;-66
2022/12/10 03:25:47;;;;;;;116.97;39.47;;;-1.20;99.90;;;;;;5045437;28;20232;-66
2022/12/10 03:28:17;;;;;;;112.07;39.13;;;-1.20;99.90;;;;;;5062310;28;20240;-66
2022/12/10 03:30:46;;;;;;;132.00;39.33;;;-1.20;99.90;;;;;;5041424;28;20537;-68
2022/12/10 03:33:13;;;;;;;119.47;38.93;;;-1.30;99.90;;;;;;5064798;28;20540;-68
2022/12/10 03:35:40;;;;;;;121.77;40.70;;;-1.30;99.90;;;;;;5061049;28;20285;-66
2022/12/10 03:38:08;;;;;;;125.73;40.57;;;-1.30;99.90;;;;;;5045617;28;20235;-67
2022/12/10 03:40:35;;;;;;;129.57;42.93;;;-1.30;99.90;;;;;;5063467;28;20701;-67
2022/12/10 03:43:02;;;;;;;135.73;43.83;;;-1.30;99.90;;;;;;5055473;28;20301;-67
2022/12/10 03:45:28;;;;;;;142.77;43.57;;;-1.40;99.90;;;;;;5065121;28;20209;-65
2022/12/10 03:47:55;;;;;;;126.13;42.40;;;-1.40;99.90;;;;;;5063551;28;20207;-67
2022/12/10 03:50:22;;;;;;;128.13;42.73;;;-1.40;99.90;;;;;;5048849;28;20242;-67
2022/12/10 03:52:48;;;;;;;136.33;42.50;;;-1.40;99.90;;;;;;5062965;28;20295;-67
2022/12/10 03:55:15;;;;;;;125.57;41.87;;;-1.40;99.90;;;;;;5060298;28;20210;-68
2022/12/10 03:57:42;;;;;;;118.00;41.33;;;-1.40;99.90;;;;;;5061364;28;20249;-67
2022/12/10 04:00:10;;;;;;;121.10;41.87;;;-1.40;99.90;;;;;;5059619;28;20221;-67
2022/12/10 04:02:37;;;;;;;136.13;43.10;;;-1.30;99.90;;;;;;5038113;28;20203;-66
2022/12/10 04:05:06;;;;;;;123.13;41.00;;;-1.40;99.90;;;;;;5060486;28;20737;-68
2022/12/10 04:07:33;;;;;;;131.07;42.27;;;-1.40;99.90;;;;;;5057641;28;20303;-68
2022/12/10 04:10:00;;;;;;;134.33;42.47;;;-1.40;99.90;;;;;;5043769;28;20326;-68
2022/12/10 04:12:27;;;;;;;136.70;43.50;;;-1.40;99.90;;;;;;5066637;28;20311;-67
2022/12/10 04:17:39;;;;;;;125.83;43.57;;;-1.40;99.90;;;;;;5056739;28;20604;-67
2022/12/10 04:26:51;;;;;;;138.33;43.90;;;-1.50;99.90;;;;;;5047397;28;20263;-67
2022/12/10 04:28:23;;;;;;;137.73;44.53;;;-1.50;99.90;;;;;;5063755;28;20215;-67
2022/12/10 04:30:50;;;;;;;157.03;47.17;;;-1.60;99.90;;;;;;5066786;28;20545;-67
2022/12/10 04:33:17;;;;;;;154.07;46.40;;;-1.60;99.90;;;;;;5060664;28;20207;-66
2022/12/10 04:35:43;;;;;;;154.63;45.50;;;-1.70;99.90;;;;;;5058378;28;20220;-66
2022/12/10 04:38:10;;;;;;;153.93;44.83;;;-1.70;99.90;;;;;;5064514;28;20308;-66
2022/12/10 04:40:37;;;;;;;136.20;43.70;;;-1.70;99.90;;;;;;5058808;28;20604;-66
2022/12/10 04:43:04;;;;;;;150.43;44.37;;;-1.70;99.90;;;;;;5062973;28;20214;-66
2022/12/10 04:45:33;;;;;;;147.43;46.10;;;-1.70;99.90;;;;;;5062793;28;20677;-67
2022/12/10 04:47:59;;;;;;;152.53;45.23;;;-1.70;99.90;;;;;;5058990;28;20220;-67
2022/12/10 04:50:26;;;;;;;168.20;44.57;;;-1.70;99.90;;;;;;5064881;28;20665;-67
2022/12/10 04:52:53;;;;;;;154.20;45.30;;;-1.70;99.90;;;;;;5065736;28;20216;-66
2022/12/10 04:55:19;;;;;;;172.13;47.53;;;-1.60;99.90;;;;;;5047344;28;20229;-67
2022/12/10 04:57:46;;;;;;;156.20;47.27;;;-1.60;99.90;;;;;;5064254;28;20304;-67
2022/12/10 05:00:13;;;;;;;167.67;47.27;;;-1.50;99.90;;;;;;5063993;28;20800;-67
2022/12/10 05:02:40;;;;;;;164.17;46.80;;;-1.50;99.90;;;;;;5062279;28;20199;-68
2022/12/10 05:05:06;;;;;;;144.50;45.20;;;-1.40;99.90;;;;;;5058435;28;20301;-67
2022/12/10 05:07:33;;;;;;;164.30;47.17;;;-1.30;99.90;;;;;;5060167;28;20737;-67
2022/12/10 05:10:00;;;;;;;164.23;49.00;;;-1.30;99.90;;;;;;5060378;28;20266;-66
2022/12/10 05:12:27;;;;;;;148.50;44.87;;;-1.30;99.90;;;;;;5061772;28;20762;-67
2022/12/10 05:14:54;;;;;;;158.47;47.63;;;-1.20;99.90;;;;;;5060648;28;20238;-67
2022/12/10 05:17:21;;;;;;;159.80;46.70;;;-1.10;99.90;;;;;;5063599;28;20704;-67
2022/12/10 05:19:47;;;;;;;165.27;46.83;;;-1.10;99.90;;;;;;5060624;28;20232;-67
2022/12/10 05:24:59;;;;;;;164.93;44.90;;;-1.10;99.90;;;;;;5054342;28;20294;-66
2022/12/10 05:27:31;;;;;;;151.70;44.70;;;-1.00;99.90;;;;;;5060965;28;20224;-66
2022/12/10 05:29:58;;;;;;;147.20;44.00;;;-1.00;99.90;;;;;;5058557;28;20304;-66
2022/12/10 05:32:24;;;;;;;159.20;45.33;;;-1.00;99.90;;;;;;5064406;28;20664;-66
2022/12/10 05:34:51;;;;;;;157.73;44.40;;;-1.00;99.90;;;;;;5042626;28;20219;-68
2022/12/10 05:37:18;;;;;;;171.97;42.63;;;-0.90;99.90;;;;;;5063825;28;20212;-66
2022/12/10 05:39:44;;;;;;;154.67;43.53;;;-1.00;99.90;;;;;;5062598;28;20240;-66
2022/12/10 05:42:11;;;;;;;162.10;44.50;;;-1.00;99.90;;;;;;5059739;28;20260;-66
2022/12/10 05:44:38;;;;;;;160.93;42.53;;;-1.00;99.90;;;;;;5065682;28;20203;-67
2022/12/10 05:47:05;;;;;;;141.33;40.80;;;-1.00;99.90;;;;;;5060454;28;20307;-66
2022/12/10 05:49:31;;;;;;;160.13;42.50;;;-1.10;99.90;;;;;;5056589;28;20215;-66
2022/12/10 05:51:58;;;;;;;144.07;40.83;;;-1.00;99.90;;;;;;5068795;28;20300;-66
2022/12/10 05:54:25;;;;;;;149.07;41.30;;;-1.00;99.90;;;;;;5065493;28;20739;-66
2022/12/10 05:56:51;;;;;;;160.13;43.67;;;-1.00;99.90;;;;;;5067415;28;20655;-67
2022/12/10 05:59:18;;;;;;;149.03;41.90;;;-1.00;99.90;;;;;;5053851;28;20318;-66
2022/12/10 06:01:45;;;;;;;155.57;42.97;;;-1.00;99.90;;;;;;5069381;28;20212;-66
2022/12/10 06:04:13;;;;;;;146.70;42.27;;;-1.00;99.90;;;;;;5070707;28;20299;-66
2022/12/10 06:06:40;;;;;;;154.63;43.97;;;-1.00;99.90;;;;;;5060146;28;20208;-67
2022/12/10 06:09:11;;;;;;;160.30;44.97;;;-1.00;99.90;;;;;;5067453;28;20288;-68
2022/12/10 06:11:38;;;;;;;149.93;41.87;;;-1.00;99.90;;;;;;5063416;28;20319;-66
2022/12/10 06:14:05;;;;;;;152.20;43.77;;;-1.00;99.90;;;;;;5067082;28;20206;-66
2022/12/10 06:16:32;;;;;;;159.53;44.40;;;-1.00;99.90;;;;;;5046537;28;20279;-67
2022/12/10 06:18:58;;;;;;;161.03;43.60;;;-1.00;99.90;;;;;;5062509;28;20473;-66
2022/12/10 06:21:25;;;;;;;152.23;42.53;;;-1.00;99.90;;;;;;5064880;28;20239;-66
2022/12/10 06:23:53;;;;;;;168.63;44.97;;;-1.00;99.90;;;;;;5057735;28;20219;-67
2022/12/10 06:26:24;;;;;;;153.70;42.70;;;-1.00;99.90;;;;;;5064263;28;20206;-67
2022/12/10 06:28:52;;;;;;;164.53;45.43;;;-1.00;99.90;;;;;;5040791;28;20200;-67
2022/12/10 06:31:20;;;;;;;149.17;42.83;;;-0.90;99.90;;;;;;5062772;28;20215;-66
2022/12/10 06:33:47;;;;;;;137.57;42.83;;;-0.90;99.90;;;;;;5040896;28;20292;-67
2022/12/10 06:36:15;;;;;;;141.27;41.17;;;-0.90;99.90;;;;;;5066033;28;20263;-67
2022/12/10 06:38:42;;;;;;;163.80;44.33;;;-1.00;99.90;;;;;;5058201;28;20562;-67
2022/12/10 06:41:12;;;;;;;156.73;42.37;;;-1.00;99.90;;;;;;5050195;28;20215;-66
2022/12/10 06:43:39;;;;;;;148.67;42.50;;;-1.00;99.90;;;;;;5042556;28;20277;-66
2022/12/10 06:46:08;;;;;;;144.70;40.87;;;-1.00;99.90;;;;;;5064563;28;20196;-67
2022/12/10 06:48:35;;;;;;;158.23;43.20;;;-1.00;99.90;;;;;;5045508;28;20212;-67
2022/12/10 06:51:04;;;;;;;151.07;42.20;;;-1.00;99.90;;;;;;5064605;28;20611;-69
2022/12/10 06:53:32;;;;;;;150.93;42.87;;;-1.00;99.90;;;;;;5064931;28;20210;-67
2022/12/10 06:56:00;;;;;;;147.67;41.43;;;-1.00;99.90;;;;;;5064264;28;20290;-67
2022/12/10 06:58:28;;;;;;;157.97;43.17;;;-1.00;99.90;;;;;;5062466;28;20220;-67
2022/12/10 07:01:05;;;;;;;154.83;42.80;;;-1.00;99.90;;;;;;5064341;28;20212;-66
2022/12/10 07:03:32;;;;;;;150.40;43.53;;;-1.00;99.90;;;;;;5056183;28;20205;-66
2022/12/10 07:06:03;;;;;;;147.07;45.33;;;-1.00;99.90;;;;;;5062989;28;20246;-66
2022/12/10 07:08:30;;;;;;;162.37;41.53;;;-0.90;99.90;;;;;;5059854;28;20289;-66
2022/12/10 07:10:57;;;;;;;150.90;43.83;;;-0.90;99.90;;;;;;5062237;28;20783;-66
2022/12/10 07:13:24;;;;;;;165.43;43.13;;;-0.90;99.90;;;;;;5058463;28;20217;-66
2022/12/10 07:15:56;;;;;;;162.73;41.30;;;-0.90;99.90;;;;;;5059967;28;20277;-66
2022/12/10 07:18:23;;;;;;;166.17;44.50;;;-0.90;99.90;;;;;;5056404;28;20220;-66
2022/12/10 07:20:50;;;;;;;174.10;45.93;;;-0.90;99.90;;;;;;5062999;28;20664;-66
2022/12/10 07:23:17;;;;;;;182.33;46.60;;;-0.80;99.90;;;;;;5060435;28;20518;-67
2022/12/10 07:25:44;;;;;;;171.67;44.07;;;-0.80;99.90;;;;;;5059558;28;20745;-66
2022/12/10 07:28:11;;;;;;;180.43;48.80;;;-0.80;99.90;;;;;;5067331;28;20678;-67
2022/12/10 07:30:37;;;;;;;180.63;49.03;;;-0.80;99.90;;;;;;5067913;28;20277;-67
2022/12/10 07:33:04;;;;;;;187.73;45.07;;;-0.80;99.90;;;;;;5062193;28;20618;-67
2022/12/10 07:35:31;;;;;;;194.23;49.63;;;-0.80;99.90;;;;;;5060569;28;20283;-67
2022/12/10 07:37:57;;;;;;;188.23;46.67;;;-0.80;99.90;;;;;;5061033;28;20602;-66
2022/12/10 07:40:24;;;;;;;197.83;47.70;;;-0.70;99.90;;;;;;5064687;28;20330;-66
2022/12/10 07:42:51;;;;;;;197.93;47.27;;;-0.70;99.90;;;;;;5066193;28;20212;-66
2022/12/10 07:45:18;;;;;;;183.90;48.27;;;-0.70;99.90;;;;;;5064011;28;20745;-66
2022/12/10 07:47:44;;;;;;;190.37;48.33;;;-0.70;99.90;;;;;;5064238;28;20714;-67
2022/12/10 07:50:11;;;;;;;180.57;46.77;;;-0.60;99.90;;;;;;5067056;28;20219;-67
2022/12/10 07:52:38;;;;;;;206.47;49.73;;;-0.70;99.90;;;;;;5044905;28;20223;-67
2022/12/10 07:55:05;;;;;;;195.90;48.67;;;-0.60;99.90;;;;;;5060287;28;20255;-66
2022/12/10 07:57:32;;;;;;;191.90;49.20;;;-0.60;99.90;;;;;;5060237;28;20296;-67
2022/12/10 07:59:58;;;;;;;178.93;45.53;;;-0.50;99.90;;;;;;5065200;28;20267;-66
2022/12/10 08:02:25;;;;;;;198.93;50.07;;;-0.50;99.90;;;;;;5060284;28;20228;-66
2022/12/10 08:04:55;;;;;;;185.40;46.07;;;-0.60;99.90;;;;;;5062432;28;20293;-66
2022/12/10 08:07:22;;;;;;;184.33;47.10;;;-0.50;99.90;;;;;;5060570;28;20203;-67
2022/12/10 08:09:48;;;;;;;166.77;45.23;;;-0.50;99.90;;;;;;5064244;28;20279;-67
2022/12/10 08:12:15;;;;;;;179.57;46.63;;;-0.50;99.90;;;;;;5063488;28;20711;-66
2022/12/10 08:14:42;;;;;;;170.30;45.43;;;-0.60;99.90;;;;;;5049331;28;20204;-66
2022/12/10 08:17:08;;;;;;;171.20;43.67;;;-0.60;99.90;;;;;;5065921;28;20294;-66
2022/12/10 08:19:35;;;;;;;171.53;42.97;;;-0.50;99.90;;;;;;5045593;28;20228;-67
2022/12/10 08:22:02;;;;;;;171.03;45.07;;;-0.50;99.90;;;;;;5062583;28;20214;-67
2022/12/10 08:24:29;;;;;;;172.07;43.27;;;-0.80;99.90;;;;;;5061599;28;20205;-67
2022/12/10 08:26:55;;;;;;;171.67;43.83;;;-0.50;99.90;;;;;;5055757;28;20216;-67
2022/12/10 08:29:22;;;;;;;177.60;45.20;;;-0.50;99.90;;;;;;5057351;28;20204;-67
2022/12/10 08:31:49;;;;;;;169.87;42.40;;;-0.50;99.90;;;;;;5056755;28;20594;-66
2022/12/10 08:34:18;;;;;;;179.00;44.47;;;-0.50;99.90;;;;;;5062306;28;20208;-66
2022/12/10 08:36:45;;;;;;;180.37;48.13;;;-0.40;99.90;;;;;;5042791;28;20208;-66
2022/12/10 08:39:16;;;;;;;176.77;45.43;;;-0.40;99.90;;;;;;5056282;28;20225;-66
2022/12/10 08:41:44;;;;;;;179.73;48.77;;;-0.40;99.90;;;;;;5058953;28;20221;-66
2022/12/10 08:44:12;;;;;;;172.40;45.40;;;-0.30;99.90;;;;;;5057763;28;20205;-70
2022/12/10 08:46:39;;;;;;;161.77;45.47;;;-0.30;99.90;;;;;;5059160;28;20268;-66
2022/12/10 08:49:08;;;;;;;168.53;44.03;;;-0.20;99.90;;;;;;5056392;28;20645;-65
2022/12/10 08:51:35;;;;;;;170.97;43.67;;;0.00;99.90;;;;;;5065250;28;20598;-66
2022/12/10 08:54:02;;;;;;;181.97;45.47;;;0.00;99.90;;;;;;5061246;28;20283;-65
2022/12/10 08:56:29;;;;;;;162.07;40.83;;;-0.10;99.90;;;;;;5061431;28;20335;-67
2022/12/10 08:58:56;;;;;;;186.10;43.00;;;-0.10;99.90;;;;;;5064504;28;20280;-67
2022/12/10 09:01:23;;;;;;;173.27;44.27;;;-0.10;99.90;;;;;;5058211;28;20324;-67
2022/12/10 09:03:50;;;;;;;167.20;43.73;;;-0.10;99.90;;;;;;5063420;28;20636;-68
2022/12/10 09:06:19;;;;;;;163.93;45.03;;;0.00;99.90;;;;;;5060957;28;20203;-66
2022/12/10 09:08:47;;;;;;;168.50;43.70;;;-0.10;99.90;;;;;;5063021;28;20212;-66
2022/12/10 09:11:23;;;;;;;180.17;44.40;;;0.00;99.90;;;;;;5062906;28;20328;-65
2022/12/10 09:13:50;;;;;;;163.43;41.90;;;0.00;99.90;;;;;;5060809;28;21547;-67
2022/12/10 09:16:17;;;;;;;166.10;43.97;;;-0.10;99.90;;;;;;5061878;28;20201;-65
2022/12/10 09:18:44;;;;;;;183.87;45.83;;;-0.10;99.90;;;;;;5048652;28;20342;-65
2022/12/10 09:21:14;;;;;;;175.03;45.67;;;-0.10;99.90;;;;;;5059154;28;20316;-66
2022/12/10 09:23:42;;;;;;;186.20;47.40;;;-0.10;99.90;;;;;;5063058;28;20273;-65
2022/12/10 09:26:11;;;;;;;180.83;45.07;;;0.10;99.90;;;;;;5061134;28;20733;-65
2022/12/10 09:28:37;;;;;;;177.17;46.13;;;0.00;99.90;;;;;;5067236;28;20610;-65
2022/12/10 09:31:05;;;;;;;199.33;48.40;;;0.00;99.90;;;;;;5059142;28;20216;-65
2022/12/10 09:33:40;;;;;;;162.93;45.90;;;0.00;99.90;;;;;;5066079;28;20295;-65
2022/12/10 09:36:09;;;;;;;164.73;45.43;;;0.00;99.90;;;;;;5063652;28;20631;-65
2022/12/10 09:38:38;;;;;;;145.27;43.17;;;0.00;99.90;;;;;;5061329;28;20238;-66
2022/12/10 09:41:20;;;;;;;147.80;41.73;;;0.10;99.90;;;;;;5059590;28;20770;-66
2022/12/10 09:44:04;;;;;;;145.47;40.67;;;0.10;99.90;;;;;;5061782;28;20204;-66
2022/12/10 09:46:44;;;;;;;126.33;38.93;;;0.10;99.90;;;;;;5062954;28;20292;-66
2022/12/10 09:49:50;;;;;;;127.83;36.73;;;0.10;99.90;;;;;;5050692;28;20212;-66
2022/12/10 09:52:22;;;;;;;122.80;36.30;;;0.10;99.90;;;;;;5064583;28;20200;-66
2022/12/10 09:54:57;;;;;;;116.10;34.87;;;0.10;99.90;;;;;;5048091;28;20315;-65
2022/12/10 09:57:36;;;;;;;121.43;37.27;;;0.10;99.90;;;;;;5058242;28;20333;-66
2022/12/10 10:00:27;;;;;;;122.43;37.87;;;0.00;99.90;;;;;;5062826;28;20355;-66
2022/12/10 10:02:59;;;;;;;116.07;35.13;;;0.00;99.90;;;;;;5053041;28;20204;-65
2022/12/10 10:05:29;;;;;;;126.87;34.83;;;0.00;99.90;;;;;;5063604;28;20223;-65
2022/12/10 10:07:59;;;;;;;115.60;35.83;;;0.00;99.90;;;;;;5065228;28;20247;-65
2022/12/10 10:10:36;;;;;;;112.53;34.43;;;0.10;99.90;;;;;;5069420;28;20275;-65
2022/12/10 10:13:08;;;;;;;118.57;34.90;;;0.10;99.90;;;;;;5063699;28;20307;-65
2022/12/10 10:15:39;;;;;;;105.13;33.90;;;0.10;99.90;;;;;;5059453;28;20212;-65
2022/12/10 10:18:40;;;;;;;115.20;33.50;;;0.10;99.90;;;;;;5052307;28;20219;-65
2022/12/10 10:21:23;;;;;;;115.80;34.27;;;0.20;99.90;;;;;;5051529;28;20314;-66
2022/12/10 10:23:51;;;;;;;104.53;32.80;;;0.20;99.90;;;;;;5061851;28;20309;-65
2022/12/10 10:26:18;;;;;;;110.27;34.80;;;0.30;99.90;;;;;;5063737;28;20300;-65
2022/12/10 10:28:48;;;;;;;100.93;33.83;;;0.30;99.90;;;;;;5061717;28;20209;-65
2022/12/10 10:31:23;;;;;;;111.40;35.33;;;0.30;99.90;;;;;;5050063;28;20673;-66
2022/12/10 10:33:58;;;;;;;104.73;32.93;;;0.40;99.90;;;;;;5061388;28;20220;-66
2022/12/10 10:36:31;;;;;;;105.57;32.90;;;0.30;99.90;;;;;;5065580;28;20209;-64
2022/12/10 10:39:09;;;;;;;108.87;33.33;;;0.30;99.90;;;;;;5062267;28;20196;-66
2022/12/10 10:41:39;;;;;;;109.20;33.40;;;0.30;99.90;;;;;;5058139;28;20264;-66
2022/12/10 10:44:15;;;;;;;119.13;33.33;;;0.30;99.90;;;;;;5065535;28;20291;-66
2022/12/10 10:46:42;;;;;;;120.63;34.87;;;0.30;99.90;;;;;;5058837;28;20287;-66
2022/12/10 10:49:26;;;;;;;101.87;32.20;;;0.30;99.90;;;;;;5062388;28;20295;-66
2022/12/10 10:51:57;;;;;;;111.70;33.93;;;0.40;99.90;;;;;;5063146;28;20258;-66
2022/12/10 10:54:34;;;;;;;93.00;32.03;;;0.40;99.90;;;;;;5056251;28;20635;-66
2022/12/10 10:57:04;;;;;;;98.70;29.77;;;0.40;99.90;;;;;;5047190;28;20316;-65
2022/12/10 10:59:36;;;;;;;100.57;30.97;;;0.40;99.90;;;;;;5061624;28;20213;-65
2022/12/10 11:02:23;;;;;;;101.87;33.70;;;;;;;;;;5060349;28;20245;-65
2022/12/10 11:04:53;;;;;;;96.43;30.67;;;0.50;99.90;;;;;;5060346;28;20201;-65
2022/12/10 11:07:21;;;;;;;107.80;31.60;;;0.40;99.90;;;;;;5063966;28;20832;-65
2022/12/10 11:09:49;;;;;;;113.23;32.80;;;0.50;99.90;;;;;;5064111;28;20336;-66
2022/12/10 11:12:28;;;;;;;101.80;31.70;;;0.60;99.90;;;;;;5049339;28;20609;-67
2022/12/10 11:14:55;;;;;;;106.43;32.97;;;0.60;99.90;;;;;;5057636;28;20614;-65
2022/12/10 11:17:24;;;;;;;105.00;32.93;;;0.70;99.90;;;;;;5062814;28;20299;-66
2022/12/10 11:20:16;;;;;;;93.40;31.57;;;0.70;99.90;;;;;;5038213;28;20203;-66
2022/12/10 11:23:01;;;;;;;90.47;30.50;;;0.80;99.90;;;;;;5061862;28;20215;-66
2022/12/10 11:25:39;;;;;;;102.57;31.03;;;0.80;99.90;;;;;;5065044;28;20219;-66
2022/12/10 11:28:37;;;;;;;96.17;29.00;;;0.90;99.90;;;;;;5059476;28;20255;-65
2022/12/10 11:31:22;;;;;;;86.93;30.30;;;0.90;99.90;;;;;;5057992;28;20236;-66
2022/12/10 11:34:04;;;;;;;82.60;28.47;;;0.90;99.90;;;;;;5064311;28;20300;-65
2022/12/10 11:36:35;;;;;;;93.67;30.23;;;0.80;99.90;;;;;;5062482;28;20232;-66
2022/12/10 11:39:27;;;;;;;93.83;28.93;;;0.70;99.90;;;;;;5063996;28;20648;-65
2022/12/10 11:42:09;;;;;;;89.90;29.87;;;0.70;99.90;;;;;;5060378;28;20880;-65
2022/12/10 11:45:01;;;;;;;84.70;28.87;;;0.80;99.90;;;;;;5066838;28;20642;-66
2022/12/10 11:47:50;;;;;;;88.30;28.90;;;0.80;99.90;;;;;;5060038;28;20214;-65
2022/12/10 11:50:28;;;;;;;82.07;27.53;;;0.80;99.90;;;;;;5055340;28;20297;-66
2022/12/10 11:53:27;;;;;;;88.27;29.37;;;0.80;99.90;;;;;;5060617;28;20289;-65
2022/12/10 11:56:15;;;;;;;84.20;28.23;;;0.80;99.90;;;;;;5060713;28;20564;-66
2022/12/10 11:58:53;;;;;;;82.37;27.33;;;0.90;99.90;;;;;;5065151;28;20328;-67
2022/12/10 12:01:26;;;;;;;77.23;27.40;;;0.90;99.90;;;;;;5064154;28;20221;-66
2022/12/10 12:04:16;;;;;;;75.93;26.33;;;0.90;99.90;;;;;;5063129;28;20257;-67
2022/12/10 12:07:16;;;;;;;78.13;26.63;;;0.90;99.90;;;;;;5053393;28;20308;-66
2022/12/10 12:09:55;;;;;;;78.90;27.63;;;0.90;99.90;;;;;;5062708;28;20724;-65
2022/12/10 12:12:54;;;;;;;77.57;28.73;;;1.00;99.90;;;;;;5050365;28;20240;-66
2022/12/10 12:15:29;;;;;;;89.27;29.27;;;1.00;99.90;;;;;;5066017;28;20652;-66
2022/12/10 12:18:18;;;;;;;78.40;27.17;;;1.00;99.90;;;;;;5056183;28;20214;-66
2022/12/10 12:20:55;;;;;;;75.70;26.10;;;1.00;99.90;;;;;;5024585;28;20325;-65
2022/12/10 12:23:43;;;;;;;72.90;24.07;;;1.00;99.90;;;;;;5063023;28;20236;-66
2022/12/10 12:26:16;;;;;;;73.07;24.87;;;1.00;99.90;;;;;;5059632;28;20201;-66
2022/12/10 12:28:52;;;;;;;75.00;25.03;;;1.00;99.90;;;;;;5057282;28;20893;-66
2022/12/10 12:31:30;;;;;;;70.27;24.97;;;1.00;99.90;;;;;;5063013;28;20231;-66
2022/12/10 12:34:10;;;;;;;75.27;26.90;;;1.00;99.90;;;;;;5066027;28;20201;-65
2022/12/10 12:36:37;;;;;;;74.00;25.83;;;1.00;99.90;;;;;;5063895;28;20233;-66
2022/12/10 12:39:12;;;;;;;77.03;24.50;;;0.90;99.90;;;;;;5064100;28;20408;-65
2022/12/10 12:41:45;;;;;;;76.03;25.60;;;1.00;99.90;;;;;;5062071;28;20265;-66
2022/12/10 12:44:36;;;;;;;71.03;24.70;;;1.00;99.90;;;;;;5046234;28;20230;-65
2022/12/10 12:47:19;;;;;;;82.33;27.00;;;1.00;99.90;;;;;;5062175;28;20316;-66
2022/12/10 12:49:48;;;;;;;82.17;26.30;;;1.00;99.90;;;;;;5059247;28;20225;-66
2022/12/10 12:52:36;;;;;;;78.03;26.37;;;1.10;99.90;;;;;;5060999;28;20257;-65
2022/12/10 12:55:19;;;;;;;69.77;24.43;;;1.10;99.90;;;;;;5067251;28;20202;-65